This is the latest recevied weather packets stored in our database for station/object HS5AU-13. If no packets are shown the sender has not sent any weather packets the latest 10 day(s).
| Time | Temp. | Humidity | Pressure | Rain* | Wind** | Luminosity | Snow |
|---|---|---|---|---|---|---|---|
| 1787993700 | 25° C | 93% | 998.4 hPa | 0 mm | - | 98 W/m² | - |
| 1787993100 | 25.56° C | 93% | 998.7 hPa | 0 mm | - | 64 W/m² | - |
| 1787992500 | 26.11° C | 89% | 999.2 hPa | 0 mm | - | 102 W/m² | - |
| 1787991900 | 26.11° C | 89% | 998.8 hPa | 0 mm | - | 164 W/m² | - |
| 1787991300 | 26.67° C | 88% | 999.8 hPa | 0 mm | - | 140 W/m² | - |
| 1787990700 | 26.67° C | 88% | 1000 hPa | 0 mm | - | 203 W/m² | - |
| 1787990100 | 27.78° C | 85% | 1000.4 hPa | 0 mm | - | 374 W/m² | - |
| 1787989500 | 27.22° C | 86% | 1000.3 hPa | 0 mm | - | 403 W/m² | - |
| 1787988900 | 26.67° C | 85% | 1000.6 hPa | 0 mm | - | 270 W/m² | - |
| 1787988300 | 26.67° C | 85% | 1001.5 hPa | 0 mm | - | 365 W/m² | - |
| 1787987700 | 26.67° C | 88% | 1000.9 hPa | 0 mm | - | 403 W/m² | - |
| 1787987100 | 26.67° C | 87% | 1001.3 hPa | 0 mm | - | 259 W/m² | - |
| 1787986500 | 25.56° C | 92% | 1000.6 hPa | 0 mm | - | 370 W/m² | - |
| 1787985900 | 26.11° C | 89% | 1001 hPa | 0 mm | - | 194 W/m² | - |
| 1787985300 | 26.11° C | 90% | 1000.8 hPa | 0 mm | - | 183 W/m² | - |
| 1787984700 | 26.67° C | 89% | 1001.6 hPa | 0 mm | - | 185 W/m² | - |
| 1787984100 | 26.67° C | 89% | 1000.9 hPa | 0 mm | - | 402 W/m² | - |
| 1787983500 | 26.67° C | 89% | 1001.4 hPa | 0 mm | - | 227 W/m² | - |
| 1787982900 | 27.22° C | 89% | 1001.4 hPa | 0 mm | - | 321 W/m² | - |
| 1787982300 | 27.22° C | 87% | 1001.8 hPa | 0 mm | - | 402 W/m² | - |
| 1787981700 | 26.67° C | 85% | 1002.2 hPa | 0 mm | - | 447 W/m² | - |
| 1787981100 | 26.67° C | 89% | 1001.7 hPa | 0 mm | - | 404 W/m² | - |
| 1787980500 | 26.11° C | 89% | 1001.8 hPa | 0 mm | - | 404 W/m² | - |
| 1787979900 | 26.11° C | 89% | 1001.5 hPa | 0 mm | - | 478 W/m² | - |
| 1787979300 | 25.56° C | 92% | 1001.7 hPa | 0 mm | - | 286 W/m² | - |
* Rain latest hour (hover to see other rain measurements)
** Current wind speed in m/s (hover to see current wind gust speed)